LTFE/BJV METAR and TAF weather

Enter ICAO airport designator
Station Type Date Time Source
LTFE METAR 2019/05/23 19:20 UTC NOAA

LTFE 231920Z VRB01KT CAVOK 20/11 Q1009 NOSIG


Station Type Date Time Source
LTFE Decoded METAR 2019/05/23 19:20 UTC NOAA

Bodrum Milas Airport, Turkey (LTFE) 37-14-53N 027-40-55E
May 23, 2019 - 03:20 PM EDT / 2019.05.23 1920 UTC
Wind: Variable at 1 MPH (1 KT):0
Visibility: greater than 7 mile(s):0
Temperature: 68 F (20 C)
Dew Point: 51 F (11 C)
Relative Humidity: 56%
Pressure (altimeter): 29.80 in. Hg (1009 hPa)
ob: LTFE 231920Z VRB01KT CAVOK 20/11 Q1009 NOSIG
cycle: 19

Station Type Date Time Source
LTFE TAF 2019/05/23 18:03 UTC NOAA

TAF LTFE 231640Z 2318/2418 VRB02KT CAVOK
BECMG 2407/2409 26013KT FEW035 BKN200
BECMG 2415/2418 VRB02KT CAVOK

Example: see airport list